Time;durP1;ratioP1;P1;durP2;ratioP2;P2;SDS_P1;SDS_P2;PMS_P1;PMS_P2;Temp;Humidity;BMP_temperature;BMP_pressure;BME280_temperature;BME280_humidity;BME280_pressure;Samples;Min_cycle;Max_cycle;Signal;HPM_P1;HPM_P2
2022/01/07 00:00:22;;;;;;;10.82;2.90;;;;;;;8.33;50.16;101280.22;5051438;28;20416;-75
2022/01/07 00:02:52;;;;;;;7.57;3.28;;;;;;;8.33;50.38;101275.69;5045276;28;20122;-75
2022/01/07 00:05:21;;;;;;;8.07;3.17;;;;;;;8.32;50.55;101267.66;5049840;28;20499;-75
2022/01/07 00:07:48;;;;;;;8.07;3.35;;;;;;;8.31;50.49;101268.63;5050169;28;20045;-75
2022/01/07 00:10:17;;;;;;;6.10;3.53;;;;;;;8.31;50.42;101261.41;5048172;28;20080;-75
2022/01/07 00:12:44;;;;;;;6.90;2.85;;;;;;;8.31;50.59;101264.09;5046628;28;20516;-75
2022/01/07 00:15:11;;;;;;;6.45;2.83;;;;;;;8.31;50.76;101261.41;5041891;28;20080;-75
2022/01/07 00:17:38;;;;;;;9.43;3.53;;;;;;;8.32;50.28;101251.41;5052555;28;20087;-75
2022/01/07 00:20:09;;;;;;;7.13;3.28;;;;;;;8.31;50.21;101256.00;5053124;28;20049;-76
2022/01/07 00:22:36;;;;;;;9.00;3.47;;;;;;;8.30;50.44;101246.09;5050110;28;20048;-76
2022/01/07 00:25:05;;;;;;;5.95;2.83;;;;;;;8.31;50.27;101249.69;5058445;28;20103;-76
2022/01/07 00:27:32;;;;;;;5.55;2.83;;;;;;;8.30;50.26;101247.91;5049627;28;20484;-76
2022/01/07 00:29:59;;;;;;;6.00;3.10;;;;;;;8.29;50.33;101241.63;5053270;28;20396;-75
2022/01/07 00:32:26;;;;;;;6.80;3.10;;;;;;;8.30;50.54;101239.81;5044630;28;20053;-76
2022/01/07 00:34:53;;;;;;;6.90;2.95;;;;;;;8.28;50.61;101229.06;5042852;28;20056;-76
2022/01/07 00:37:19;;;;;;;7.63;2.90;;;;;;;8.29;50.43;101211.00;5051689;28;20045;-75
2022/01/07 00:39:47;;;;;;;7.00;2.70;;;;;;;8.28;50.21;101218.22;5061002;28;20502;-76
2022/01/07 00:42:14;;;;;;;6.78;3.28;;;;;;;8.27;50.47;101208.38;5037275;28;20054;-76
2022/01/07 00:44:41;;;;;;;5.90;3.00;;;;;;;8.28;50.47;101206.53;5050341;28;20080;-76
2022/01/07 00:47:07;;;;;;;7.95;3.10;;;;;;;8.27;50.43;101200.25;5047784;28;20076;-75
2022/01/07 00:49:34;;;;;;;8.02;3.50;;;;;;;8.27;50.49;101202.94;5052395;28;20094;-76
2022/01/07 00:52:01;;;;;;;6.03;3.28;;;;;;;8.27;50.57;101194.84;5043597;28;20495;-76
2022/01/07 00:54:28;;;;;;;5.78;3.17;;;;;;;8.28;50.69;101207.41;5045568;28;20132;-76
2022/01/07 00:56:55;;;;;;;7.63;3.13;;;;;;;8.28;50.31;101188.47;5058935;28;20048;-76
2022/01/07 00:59:22;;;;;;;7.10;3.35;;;;;;;8.28;50.54;101202.00;5050616;28;20056;-75
2022/01/07 01:01:48;;;;;;;6.13;3.72;;;;;;;8.28;50.60;101190.31;5046169;28;20152;-75
2022/01/07 01:04:35;;;;;;;7.05;3.10;;;;;;;8.28;50.54;101184.91;5051713;28;20135;-76
2022/01/07 01:07:02;;;;;;;6.75;3.30;;;;;;;8.29;50.60;101190.22;5048232;28;20053;-76
2022/01/07 01:09:29;;;;;;;5.40;2.92;;;;;;;8.29;50.60;101192.94;5049141;28;20076;-76
2022/01/07 01:11:57;;;;;;;6.68;2.97;;;;;;;8.31;50.52;101184.78;5047502;28;20239;-75
2022/01/07 01:14:24;;;;;;;8.40;3.10;;;;;;;8.31;50.48;101182.06;5043517;28;20103;-75
2022/01/07 01:16:52;;;;;;;6.38;3.20;;;;;;;8.31;50.35;101182.06;5052244;28;20061;-75
2022/01/07 01:19:18;;;;;;;6.05;3.17;;;;;;;8.31;50.35;101184.78;5052667;28;20128;-75
2022/01/07 01:21:45;;;;;;;7.32;3.33;;;;;;;8.31;50.35;101182.94;5057994;28;20479;-75
2022/01/07 01:24:12;;;;;;;7.47;3.42;;;;;;;8.31;50.16;101176.66;5048040;28;20546;-75
2022/01/07 01:26:38;;;;;;;5.82;2.92;;;;;;;8.32;50.41;101170.28;5050476;28;20065;-75
2022/01/07 01:29:05;;;;;;;9.18;3.35;;;;;;;8.32;50.48;101172.97;5049468;28;20040;-75
2022/01/07 01:31:35;;;;;;;6.82;3.30;;;;;;;8.31;50.18;101161.31;5047022;28;20565;-75
2022/01/07 01:34:04;;;;;;;5.75;3.40;;;;;;;8.33;50.43;101161.19;5047291;28;20044;-75
2022/01/07 01:36:32;;;;;;;8.63;3.55;;;;;;;8.33;50.26;101164.78;5059787;28;20056;-75
2022/01/07 01:38:59;;;;;;;8.50;3.33;;;;;;;8.33;50.37;101153.97;5047838;28;20045;-75
2022/01/07 01:41:27;;;;;;;6.40;3.20;;;;;;;8.34;50.32;101142.19;5051111;28;20127;-75
2022/01/07 01:43:54;;;;;;;6.88;3.10;;;;;;;8.34;50.38;101142.19;5049048;28;20048;-75
2022/01/07 01:46:21;;;;;;;7.68;3.30;;;;;;;8.35;50.20;101138.53;5047883;28;20075;-75
2022/01/07 01:48:48;;;;;;;7.63;3.30;;;;;;;8.34;50.42;101128.66;5049383;28;20140;-75
2022/01/07 01:51:16;;;;;;;6.80;3.50;;;;;;;8.37;50.36;101125.81;5049115;28;20050;-75
2022/01/07 01:53:43;;;;;;;9.98;3.88;;;;;;;8.36;50.50;101134.00;5044450;28;20083;-75
2022/01/07 01:56:09;;;;;;;6.13;3.15;;;;;;;8.36;50.40;101123.19;5053827;28;20072;-75
2022/01/07 01:58:36;;;;;;;7.75;3.28;;;;;;;8.35;50.59;101122.31;5046063;28;20080;-75
2022/01/07 02:01:05;;;;;;;7.15;3.38;;;;;;;8.38;50.05;101119.44;5051776;28;20068;-76
2022/01/07 02:03:33;;;;;;;5.55;3.00;;;;;;;8.36;50.63;101115.94;5051044;28;20068;-76
2022/01/07 02:05:59;;;;;;;6.13;3.10;;;;;;;8.36;50.42;101120.47;5051694;28;20135;-75
2022/01/07 02:08:26;;;;;;;7.20;3.05;;;;;;;8.37;50.29;101119.53;5056071;28;20104;-75
2022/01/07 02:10:55;;;;;;;9.68;4.28;;;;;;;8.35;50.32;101114.19;5046186;28;20600;-76
2022/01/07 02:13:21;;;;;;;7.00;3.28;;;;;;;8.35;50.16;101107.91;5038394;28;20499;-75
2022/01/07 02:15:48;;;;;;;7.10;3.70;;;;;;;8.36;50.22;101113.22;5047143;28;20102;-76
2022/01/07 02:18:17;;;;;;;5.93;3.05;;;;;;;8.37;50.30;101108.69;5049121;28;20144;-76
2022/01/07 02:20:45;;;;;;;7.22;3.15;;;;;;;8.36;50.51;101099.72;5041741;28;20112;-76
2022/01/07 02:23:13;;;;;;;8.98;3.75;;;;;;;8.37;50.52;101100.59;5054194;28;20186;-75
2022/01/07 02:25:40;;;;;;;8.50;3.22;;;;;;;8.36;50.62;101091.59;5046759;28;20076;-76
2022/01/07 02:28:07;;;;;;;6.90;3.53;;;;;;;8.37;50.37;101090.63;5050242;28;20053;-75
2022/01/07 02:30:34;;;;;;;8.63;3.35;;;;;;;8.37;50.41;101085.22;5043950;28;20137;-76
2022/01/07 02:33:01;;;;;;;5.90;3.40;;;;;;;8.37;50.45;101085.22;5050773;28;20083;-75
2022/01/07 02:35:33;;;;;;;9.23;3.50;;;;;;;8.40;50.30;101084.16;5046356;28;20045;-75
2022/01/07 02:38:00;;;;;;;7.70;3.40;;;;;;;8.37;50.54;101089.75;5053519;28;20076;-75
2022/01/07 02:40:27;;;;;;;8.75;3.53;;;;;;;8.36;50.69;101078.06;5051779;28;20124;-75
2022/01/07 02:42:54;;;;;;;7.65;3.47;;;;;;;8.37;50.45;101079.81;5045761;28;20053;-74
2022/01/07 02:45:21;;;;;;;8.43;3.40;;;;;;;8.37;50.45;101087.94;5051928;28;20065;-75
2022/01/07 02:47:55;;;;;;;5.68;3.13;;;;;;;8.37;50.84;101077.13;5055935;28;20110;-75
2022/01/07 02:50:26;;;;;;;6.65;3.17;;;;;;;8.38;50.52;101073.44;5052804;28;20132;-74
2022/01/07 02:52:54;;;;;;;5.78;3.33;;;;;;;8.39;50.68;101068.91;5052209;28;20718;-74
2022/01/07 02:55:23;;;;;;;4.80;2.80;;;;;;;8.39;50.62;101069.78;5042606;28;20472;-74
2022/01/07 02:57:49;;;;;;;5.75;3.28;;;;;;;8.38;50.57;101067.16;5053014;28;20091;-74
2022/01/07 03:00:18;;;;;;;6.57;3.05;;;;;;;8.38;50.84;101070.75;5044933;28;20053;-75
2022/01/07 03:02:49;;;;;;;4.60;2.92;;;;;;;8.40;50.47;101070.63;5047089;28;20139;-75
2022/01/07 03:05:17;;;;;;;8.45;3.10;;;;;;;8.38;50.51;101059.94;5061614;28;20041;-75
2022/01/07 03:07:48;;;;;;;7.93;2.67;;;;;;;8.37;50.62;101043.78;5053117;28;20057;-75
2022/01/07 03:10:17;;;;;;;6.15;3.08;;;;;;;8.36;50.43;101037.50;5051286;28;20136;-75
2022/01/07 03:12:44;;;;;;;7.25;3.22;;;;;;;8.34;50.57;101035.81;5049390;28;20183;-75
2022/01/07 03:15:12;;;;;;;6.55;3.45;;;;;;;8.35;50.39;101026.75;5051255;28;20123;-75
2022/01/07 03:17:40;;;;;;;6.57;3.13;;;;;;;8.32;50.55;101016.06;5051359;28;20469;-75
2022/01/07 03:20:09;;;;;;;6.90;3.40;;;;;;;8.30;50.59;101005.34;5051082;28;20091;-75
2022/01/07 03:22:36;;;;;;;5.40;3.08;;;;;;;8.27;50.38;101004.63;5046356;28;20618;-74
2022/01/07 03:25:03;;;;;;;7.28;3.50;;;;;;;8.24;50.45;101005.66;5064032;28;20051;-75
2022/01/07 03:27:31;;;;;;;6.32;3.47;;;;;;;8.22;50.53;100999.47;5055392;28;20509;-75
2022/01/07 03:29:57;;;;;;;5.57;3.22;;;;;;;8.20;50.80;100997.81;5054626;28;20148;-74
2022/01/07 03:32:24;;;;;;;6.18;3.30;;;;;;;8.17;50.78;100979.03;5050132;28;20417;-75
2022/01/07 03:34:52;;;;;;;6.78;3.00;;;;;;;8.17;51.13;100970.91;5049743;28;20138;-75
2022/01/07 03:37:19;;;;;;;6.00;2.97;;;;;;;8.14;50.97;100963.88;5053485;28;20059;-75
2022/01/07 03:39:45;;;;;;;5.78;3.45;;;;;;;8.12;50.89;100970.31;5052932;28;20088;-75
2022/01/07 03:42:12;;;;;;;5.15;3.10;;;;;;;8.11;50.97;100960.44;5046377;28;20128;-76
2022/01/07 03:44:39;;;;;;;5.10;2.72;;;;;;;8.08;51.10;100958.78;5062042;28;20051;-75
2022/01/07 03:47:06;;;;;;;6.00;2.90;;;;;;;8.08;51.18;100950.66;5049113;28;20064;-74
2022/01/07 03:49:33;;;;;;;6.25;3.40;;;;;;;8.08;51.06;100947.06;5062013;28;20127;-75
2022/01/07 03:51:59;;;;;;;5.07;2.80;;;;;;;8.05;51.13;100942.72;5059259;28;20083;-75
2022/01/07 03:54:26;;;;;;;6.13;3.80;;;;;;;8.04;51.18;100949.09;5054505;28;20567;-75
2022/01/07 03:56:53;;;;;;;5.78;2.97;;;;;;;8.02;51.40;100938.34;5048184;28;20049;-75
2022/01/07 03:59:19;;;;;;;5.95;2.83;;;;;;;8.01;51.33;100933.91;5056413;28;20048;-75
2022/01/07 04:01:46;;;;;;;5.85;2.92;;;;;;;8.00;51.28;100945.66;5045724;28;20132;-75
2022/01/07 04:04:12;;;;;;;9.32;3.75;;;;;;;8.00;51.51;100936.69;5050439;28;20057;-75
2022/01/07 04:06:39;;;;;;;7.45;3.05;;;;;;;7.99;51.39;100933.09;5042464;28;20140;-75
2022/01/07 04:09:05;;;;;;;6.50;3.30;;;;;;;8.00;51.35;100933.97;5061231;28;20132;-74
2022/01/07 04:11:32;;;;;;;6.85;3.08;;;;;;;7.98;51.46;100927.81;5040249;28;20484;-75
2022/01/07 04:13:58;;;;;;;6.20;3.10;;;;;;;7.97;51.57;100921.53;5043632;28;20144;-74
2022/01/07 04:16:25;;;;;;;6.13;2.65;;;;;;;7.97;51.47;100920.66;5047736;28;20249;-74
2022/01/07 04:18:52;;;;;;;6.32;2.85;;;;;;;7.96;51.51;100913.50;5045402;28;20103;-74
2022/01/07 04:21:18;;;;;;;7.00;3.10;;;;;;;7.96;51.71;100911.66;5050155;28;20080;-74
2022/01/07 04:23:45;;;;;;;4.55;2.70;;;;;;;7.98;51.51;100912.47;5066203;28;20124;-74
2022/01/07 04:26:11;;;;;;;6.25;2.83;;;;;;;7.97;51.62;100907.13;5048885;28;20131;-74
2022/01/07 04:28:38;;;;;;;4.88;2.78;;;;;;;7.96;51.67;100906.25;5058160;28;20573;-74
2022/01/07 04:31:04;;;;;;;4.28;2.58;;;;;;;7.97;51.81;100904.44;5037705;28;20155;-74
2022/01/07 04:33:33;;;;;;;7.10;3.05;;;;;;;7.97;51.66;100899.03;5055243;28;20263;-74
2022/01/07 04:36:00;;;;;;;5.10;2.70;;;;;;;7.95;51.65;100904.50;5048818;28;20535;-74
2022/01/07 04:38:27;;;;;;;6.95;3.13;;;;;;;7.96;51.80;100900.84;5049688;28;20147;-74
2022/01/07 04:40:53;;;;;;;6.10;2.88;;;;;;;7.96;51.89;100895.44;5035609;28;20080;-74
2022/01/07 04:43:20;;;;;;;6.63;2.78;;;;;;;7.96;51.77;100897.28;5068019;28;20087;-74
2022/01/07 04:45:47;;;;;;;5.40;2.70;;;;;;;7.98;51.97;100884.56;5050419;28;20045;-74
2022/01/07 04:48:14;;;;;;;5.28;2.45;;;;;;;7.98;51.87;100896.25;5050233;28;20084;-74
2022/01/07 04:50:40;;;;;;;5.65;3.10;;;;;;;8.00;51.71;100910.53;5058459;28;20060;-74
2022/01/07 04:53:07;;;;;;;7.95;2.88;;;;;;;7.99;51.74;100906.06;5048755;28;20131;-74
2022/01/07 04:55:38;;;;;;;5.53;2.67;;;;;;;8.01;51.92;100896.06;5056027;28;20132;-75
2022/01/07 04:58:10;;;;;;;5.60;2.63;;;;;;;8.02;51.69;100899.63;5048411;28;20132;-74
2022/01/07 05:00:39;;;;;;;5.23;2.47;;;;;;;7.99;51.73;100908.78;5049344;28;20468;-74
2022/01/07 05:03:06;;;;;;;4.57;2.30;;;;;;;7.98;51.64;100909.75;5051559;28;20049;-74
2022/01/07 05:05:33;;;;;;;5.03;2.55;;;;;;;8.01;51.80;100909.56;5046134;28;20123;-75
2022/01/07 05:08:01;;;;;;;3.95;2.40;;;;;;;8.02;51.76;100899.63;5050012;28;20148;-74
2022/01/07 05:10:27;;;;;;;4.25;2.50;;;;;;;8.01;51.61;100903.28;5050651;28;20128;-75
2022/01/07 05:12:54;;;;;;;4.63;2.20;;;;;;;8.01;51.64;100897.88;5045392;28;20042;-74
2022/01/07 05:15:23;;;;;;;6.47;3.00;;;;;;;8.01;51.78;100900.59;5054831;28;20548;-75
2022/01/07 05:17:50;;;;;;;4.97;2.50;;;;;;;8.03;51.80;100906.78;5053683;28;20056;-75
2022/01/07 05:20:17;;;;;;;5.68;2.28;;;;;;;8.02;51.72;100903.22;5058123;28;20136;-75
2022/01/07 05:22:44;;;;;;;4.60;2.60;;;;;;;8.02;51.63;100908.63;5064120;28;20056;-75
2022/01/07 05:25:13;;;;;;;5.80;2.45;;;;;;;8.03;51.71;100904.97;5055275;28;20132;-75
2022/01/07 05:27:39;;;;;;;5.60;2.60;;;;;;;8.02;51.91;100905.91;5057230;28;20144;-76
2022/01/07 05:30:08;;;;;;;3.92;2.22;;;;;;;8.03;51.87;100907.66;5057502;28;20095;-75
2022/01/07 05:32:34;;;;;;;4.00;2.35;;;;;;;8.03;51.84;100904.97;5043410;28;20314;-75
2022/01/07 05:35:01;;;;;;;6.32;2.55;;;;;;;8.03;51.69;100902.25;5052018;28;20131;-75
2022/01/07 05:37:28;;;;;;;5.55;2.35;;;;;;;8.04;51.86;100905.84;5048661;28;20126;-76
2022/01/07 05:39:56;;;;;;;5.85;2.70;;;;;;;8.04;51.91;100900.44;5042344;28;20515;-76
2022/01/07 05:42:26;;;;;;;5.47;2.80;;;;;;;8.04;52.12;100897.72;5045144;28;20549;-75
2022/01/07 05:44:52;;;;;;;6.03;2.55;;;;;;;8.06;52.02;100895.81;5050251;28;20049;-75
2022/01/07 05:47:19;;;;;;;5.15;2.22;;;;;;;8.05;52.03;100896.78;5038923;28;20139;-75
2022/01/07 05:49:45;;;;;;;7.22;2.75;;;;;;;8.05;52.01;100894.06;5039412;28;20052;-75
2022/01/07 05:52:12;;;;;;;5.00;2.72;;;;;;;8.05;52.14;100891.34;5048347;28;20143;-75
2022/01/07 05:54:39;;;;;;;3.72;2.30;;;;;;;8.03;51.71;100886.03;5047269;28;20063;-75
2022/01/07 05:57:06;;;;;;;4.78;2.75;;;;;;;8.03;52.08;100891.44;5046249;28;20107;-75
2022/01/07 05:59:35;;;;;;;6.57;2.70;;;;;;;8.02;51.96;100884.28;5045265;28;20056;-75
2022/01/07 06:02:03;;;;;;;5.57;2.67;;;;;;;8.00;51.96;100880.78;5043488;28;20059;-76
2022/01/07 06:04:30;;;;;;;5.32;2.33;;;;;;;7.98;51.81;100880.03;5049007;28;20045;-76
2022/01/07 06:06:56;;;;;;;5.32;2.33;;;;;;;7.96;52.09;100878.34;5047365;28;20044;-75
2022/01/07 06:09:23;;;;;;;5.40;2.60;;;;;;;7.93;51.98;100876.69;5040670;28;20344;-74
2022/01/07 06:11:50;;;;;;;4.40;2.50;;;;;;;7.91;52.15;100883.13;5045876;28;20578;-74
2022/01/07 06:14:17;;;;;;;5.47;2.33;;;;;;;7.88;52.21;100886.88;5041691;28;20077;-74
2022/01/07 06:16:45;;;;;;;4.82;2.75;;;;;;;7.87;52.18;100873.44;5047126;28;20053;-75
2022/01/07 06:19:11;;;;;;;5.03;2.50;;;;;;;7.84;52.42;100865.50;5043374;28;20072;-74
2022/01/07 06:21:40;;;;;;;7.18;2.70;;;;;;;7.81;52.17;100871.97;5049770;28;20049;-74
2022/01/07 06:24:07;;;;;;;5.20;2.50;;;;;;;7.78;52.02;100868.56;5049421;28;20128;-75
2022/01/07 06:26:33;;;;;;;4.93;2.58;;;;;;;7.76;52.32;100865.06;5037789;28;20497;-75
2022/01/07 06:29:00;;;;;;;5.03;2.60;;;;;;;7.73;52.18;100865.25;5044187;28;20080;-74
2022/01/07 06:31:27;;;;;;;4.47;2.17;;;;;;;7.69;52.14;100863.66;5038672;28;20135;-74
2022/01/07 06:33:53;;;;;;;5.47;2.63;;;;;;;7.67;52.27;100865.56;5034328;28;20463;-74
2022/01/07 06:36:20;;;;;;;6.85;2.72;;;;;;;7.63;52.53;100854.94;5034855;28;20042;-74
2022/01/07 06:38:47;;;;;;;6.78;2.88;;;;;;;7.61;52.46;100861.38;5039096;28;20561;-74
2022/01/07 06:41:16;;;;;;;8.32;2.90;;;;;;;7.59;52.48;100857.88;5039602;28;20126;-74
2022/01/07 06:43:46;;;;;;;5.55;2.58;;;;;;;7.56;52.78;100853.53;5045689;28;20103;-74
2022/01/07 06:46:13;;;;;;;5.35;2.92;;;;;;;7.52;52.49;100860.03;5042581;28;20083;-74
2022/01/07 06:48:46;;;;;;;;;;;;;;;7.33;53.21;100863.81;5036245;28;20377;-74
2022/01/07 06:51:12;;;;;;;5.38;2.47;;;;;;;7.44;52.80;100851.47;5046896;28;19956;-74
2022/01/07 06:53:39;;;;;;;4.60;2.20;;;;;;;7.47;52.73;100856.72;5040026;28;20484;-74
2022/01/07 06:56:05;;;;;;;5.45;2.40;;;;;;;7.45;52.76;100861.31;5042411;28;20050;-74
2022/01/07 06:58:32;;;;;;;5.63;2.60;;;;;;;7.45;52.88;100846.94;5034876;28;20511;-75
2022/01/07 07:00:59;;;;;;;4.53;2.40;;;;;;;7.44;52.99;100853.31;5045475;28;20088;-73
2022/01/07 07:03:26;;;;;;;6.95;2.33;;;;;;;7.44;53.10;100856.00;5039860;28;20053;-73
2022/01/07 07:05:53;;;;;;;6.07;2.28;;;;;;;7.43;53.23;100855.13;5035993;28;20543;-73
2022/01/07 07:08:19;;;;;;;4.22;2.30;;;;;;;7.44;53.01;100858.72;5042262;28;20080;-73
2022/01/07 07:10:46;;;;;;;5.32;2.72;;;;;;;7.44;53.07;100861.41;5051653;28;20079;-74
2022/01/07 07:13:13;;;;;;;3.72;1.75;;;;;;;7.45;53.34;100863.16;5035428;28;20085;-73
2022/01/07 07:15:39;;;;;;;4.72;1.92;;;;;;;7.45;53.24;100857.75;5034297;28;20106;-73
2022/01/07 07:18:06;;;;;;;4.88;2.20;;;;;;;7.46;53.24;100862.19;5051088;28;20057;-74
2022/01/07 07:20:32;;;;;;;3.72;1.92;;;;;;;7.46;53.51;100868.47;5044732;28;20404;-74
2022/01/07 07:22:59;;;;;;;4.00;2.03;;;;;;;7.49;53.29;100862.06;5048316;28;20138;-74
2022/01/07 07:25:26;;;;;;;4.18;2.00;;;;;;;7.50;53.40;100856.53;5049907;28;20076;-73
2022/01/07 07:27:52;;;;;;;4.28;1.95;;;;;;;7.51;53.11;100869.09;5054381;28;20087;-74
2022/01/07 07:30:19;;;;;;;4.03;1.98;;;;;;;7.51;53.60;100863.69;5034377;28;20091;-74
2022/01/07 07:32:48;;;;;;;4.68;2.00;;;;;;;7.52;53.43;100868.16;5059946;28;20499;-74
2022/01/07 07:37:41;;;;;;;5.07;1.77;;;;;;;7.55;53.38;100859.00;5057586;28;20144;-74
2022/01/07 07:40:08;;;;;;;4.00;1.98;;;;;;;7.58;53.51;100864.22;5050126;28;20091;-74
2022/01/07 07:42:35;;;;;;;4.18;2.03;;;;;;;7.58;53.52;100861.53;5054866;28;20175;-74
2022/01/07 07:45:01;;;;;;;3.60;2.00;;;;;;;7.60;53.66;100863.19;5049394;28;20158;-74
2022/01/07 07:47:28;;;;;;;4.50;2.00;;;;;;;7.60;53.72;100852.38;5047142;28;20140;-74
2022/01/07 07:49:57;;;;;;;3.20;1.63;;;;;;;7.63;53.32;100857.63;5055377;28;20052;-74
2022/01/07 07:52:23;;;;;;;4.38;1.90;;;;;;;7.64;53.56;100861.22;5048135;28;20052;-74
2022/01/07 07:54:50;;;;;;;4.03;1.90;;;;;;;7.67;53.60;100854.75;5043669;28;20052;-73
2022/01/07 07:57:18;;;;;;;5.35;2.47;;;;;;;7.68;53.32;100860.06;5044653;28;20049;-72
2022/01/07 07:59:45;;;;;;;3.92;1.90;;;;;;;7.71;53.48;100864.44;5050786;28;20052;-73
2022/01/07 08:02:11;;;;;;;4.18;2.58;;;;;;;7.70;53.59;100858.16;5048326;28;20056;-73
2022/01/07 08:04:39;;;;;;;4.40;2.22;;;;;;;7.74;53.63;100861.59;5041579;28;20076;-73
2022/01/07 08:07:15;;;;;;;4.25;2.00;;;;;;;7.75;53.43;100866.88;5057976;28;20087;-73
2022/01/07 08:09:44;;;;;;;3.72;1.83;;;;;;;7.79;53.72;100871.19;5036943;28;20168;-73
2022/01/07 08:12:28;;;;;;;4.40;1.80;;;;;;;7.82;53.65;100871.03;5052492;28;20071;-73
2022/01/07 08:17:40;;;;;;;4.65;2.05;;;;;;;7.85;53.74;100868.13;5053112;28;20092;-73
2022/01/07 08:20:07;;;;;;;4.53;2.20;;;;;;;7.89;53.52;100866.13;5035199;28;20057;-73
2022/01/07 08:22:34;;;;;;;4.60;2.25;;;;;;;7.92;53.62;100868.66;5045513;28;20049;-73
2022/01/07 08:25:02;;;;;;;3.67;2.13;;;;;;;7.94;53.79;100862.22;5044929;28;20447;-68
2022/01/07 08:27:29;;;;;;;3.45;2.22;;;;;;;7.98;54.18;100862.94;5053352;28;20123;-74
2022/01/07 08:30:12;;;;;;;3.70;2.00;;;;;;;8.02;54.44;100865.34;5052592;28;20041;-75
2022/01/07 08:35:25;;;;;;;4.03;2.25;;;;;;;8.13;53.79;100858.47;5039441;28;20429;-74
2022/01/07 08:37:51;;;;;;;4.15;2.03;;;;;;;8.18;53.77;100861.78;5048099;28;20602;-74
2022/01/07 08:40:18;;;;;;;3.40;2.03;;;;;;;8.20;53.78;100858.03;5041511;28;20044;-74
2022/01/07 08:42:47;;;;;;;4.93;2.13;;;;;;;8.25;53.79;100847.81;5044883;28;20115;-74
2022/01/07 08:45:14;;;;;;;4.70;2.30;;;;;;;8.26;53.86;100849.56;5052201;28;20267;-74
2022/01/07 08:47:40;;;;;;;3.85;2.00;;;;;;;8.29;53.36;100851.22;5056494;28;20080;-74
2022/01/07 08:50:07;;;;;;;3.20;2.00;;;;;;;8.29;53.36;100841.28;5056499;28;20118;-75
2022/01/07 08:52:34;;;;;;;3.45;2.03;;;;;;;8.33;53.64;100842.00;5041629;28;20080;-75
2022/01/07 08:55:01;;;;;;;4.57;2.17;;;;;;;8.34;53.61;100843.75;5046533;28;20114;-74
2022/01/07 08:57:27;;;;;;;4.07;2.10;;;;;;;8.35;53.58;100835.56;5045311;28;20467;-75
2022/01/07 08:59:54;;;;;;;3.70;1.88;;;;;;;8.37;53.42;100824.66;5049124;28;20072;-75
2022/01/07 09:02:21;;;;;;;4.47;2.40;;;;;;;8.38;53.52;100824.56;5044861;28;20139;-75
2022/01/07 09:04:47;;;;;;;5.53;2.28;;;;;;;8.40;53.52;100816.34;5050587;28;20056;-74
2022/01/07 09:07:14;;;;;;;3.25;1.88;;;;;;;8.41;53.52;100812.66;5052611;28;20044;-75
2022/01/07 09:09:41;;;;;;;3.70;2.13;;;;;;;8.42;53.46;100819.81;5050191;28;20057;-75
2022/01/07 09:12:09;;;;;;;3.55;1.92;;;;;;;8.44;53.42;100817.91;5038325;28;20421;-75
2022/01/07 09:14:36;;;;;;;3.28;1.58;;;;;;;8.45;53.26;100824.19;5037869;28;20081;-75
2022/01/07 09:17:23;;;;;;;2.92;1.80;;;;;;;8.46;53.78;100817.81;5055442;28;20139;-75
2022/01/07 09:19:50;;;;;;;2.95;1.80;;;;;;;8.48;53.52;100824.91;4992005;28;20050;-74
2022/01/07 09:22:16;;;;;;;2.88;1.60;;;;;;;8.48;53.47;100824.91;4982531;28;20054;-74
2022/01/07 09:24:43;;;;;;;3.40;1.70;;;;;;;8.49;53.40;100837.44;5007696;28;20089;-75
2022/01/07 09:27:10;;;;;;;3.15;1.60;;;;;;;8.51;53.66;100843.66;5010720;28;20133;-74
2022/01/07 09:29:36;;;;;;;3.30;1.77;;;;;;;8.53;53.27;100847.13;5007288;28;20046;-73
2022/01/07 09:32:04;;;;;;;3.10;1.70;;;;;;;8.53;53.55;100851.69;4999896;28;20050;-75
2022/01/07 09:34:32;;;;;;;3.22;1.80;;;;;;;8.55;53.31;100847.06;5005730;28;20046;-74
2022/01/07 09:37:03;;;;;;;2.08;1.30;;;;;;;8.58;53.20;100847.72;5006674;28;20041;-74
2022/01/07 09:39:31;;;;;;;2.83;1.42;;;;;;;8.57;53.25;100859.50;5018147;28;20084;-75
2022/01/07 09:42:02;;;;;;;2.72;1.35;;;;;;;8.59;53.22;100846.78;5003770;28;20057;-75
2022/01/07 09:44:29;;;;;;;2.72;1.50;;;;;;;8.59;53.13;100846.78;5005235;28;20133;-74
2022/01/07 09:46:56;;;;;;;2.35;1.40;;;;;;;8.59;53.04;100848.59;5011862;28;20045;-74
2022/01/07 09:49:23;;;;;;;2.33;1.40;;;;;;;8.59;53.31;100844.06;5007473;28;20042;-74
2022/01/07 09:51:50;;;;;;;2.00;1.23;;;;;;;8.62;52.99;100832.19;5000310;28;20474;-74
2022/01/07 09:54:17;;;;;;;3.72;1.50;;;;;;;8.61;53.16;100833.16;4999296;28;20060;-74
2022/01/07 09:56:44;;;;;;;4.60;2.15;;;;;;;8.61;53.21;100830.44;5012974;28;20054;-75
2022/01/07 09:59:10;;;;;;;4.32;1.80;;;;;;;8.61;53.23;100835.88;5052364;28;20084;-74
2022/01/07 10:02:03;;;;;;;3.10;1.60;;;;;;;8.63;53.28;100833.94;5044352;28;20504;-74
2022/01/07 10:04:41;;;;;;;3.25;1.80;;;;;;;8.62;53.33;100824.06;5045981;28;20037;-75
2022/01/07 10:07:13;;;;;;;3.10;1.83;;;;;;;8.62;53.17;100824.94;5051214;28;20113;-75
2022/01/07 10:09:41;;;;;;;3.10;1.70;;;;;;;8.62;53.49;100834.91;5046808;28;20053;-74
2022/01/07 10:12:08;;;;;;;3.35;1.40;;;;;;;8.62;53.60;100838.47;5044584;28;20063;-75
2022/01/07 10:14:36;;;;;;;2.53;1.30;;;;;;;8.66;53.52;100841.88;5052352;28;20439;-74
2022/01/07 10:17:03;;;;;;;3.35;1.20;;;;;;;8.67;53.29;100830.94;5055708;28;20539;-74
2022/01/07 10:19:34;;;;;;;2.30;1.20;;;;;;;8.71;53.23;100834.38;5056478;28;20454;-74
2022/01/07 10:22:13;;;;;;;2.63;1.27;;;;;;;8.73;53.21;100830.56;5047434;28;20052;-74
2022/01/07 10:25:01;;;;;;;3.25;1.15;;;;;;;8.73;53.36;100830.56;5044730;28;20555;-74
2022/01/07 10:27:38;;;;;;;2.00;1.20;;;;;;;8.75;53.53;100834.06;5047436;28;20044;-76
2022/01/07 10:30:18;;;;;;;2.10;1.40;;;;;;;8.76;53.15;100832.25;5047946;28;20063;-75
2022/01/07 10:32:45;;;;;;;3.42;1.50;;;;;;;8.74;53.25;100824.22;5036987;28;20068;-75
2022/01/07 10:35:17;;;;;;;3.20;1.55;;;;;;;8.79;53.14;100815.81;5052813;28;20127;-75
2022/01/07 10:37:52;;;;;;;2.83;1.57;;;;;;;8.81;53.18;100811.19;5034465;28;20049;-76
2022/01/07 10:40:31;;;;;;;3.28;1.63;;;;;;;8.83;53.19;100813.78;5047671;28;20049;-76
2022/01/07 10:43:22;;;;;;;3.42;1.30;;;;;;;8.82;53.04;100814.75;5046128;28;20114;-76
2022/01/07 10:45:56;;;;;;;3.00;1.58;;;;;;;8.84;53.29;100804.72;5046897;28;20044;-76
2022/01/07 10:48:35;;;;;;;2.60;1.55;;;;;;;8.83;53.33;100809.25;5051143;28;20048;-77
2022/01/07 10:51:06;;;;;;;3.38;1.40;;;;;;;8.86;52.99;100800.94;5046909;28;20076;-76
2022/01/07 10:53:33;;;;;;;2.67;1.25;;;;;;;8.86;53.00;100798.25;5048109;28;20472;-76
2022/01/07 10:56:01;;;;;;;3.58;1.50;;;;;;;8.88;53.23;100793.63;5036452;28;20083;-76
2022/01/07 10:58:28;;;;;;;2.95;1.40;;;;;;;8.88;52.97;100793.63;5047797;28;20525;-75
2022/01/07 11:00:55;;;;;;;3.22;1.52;;;;;;;8.89;52.75;100787.25;5046274;28;20057;-75
2022/01/07 11:03:23;;;;;;;2.05;1.25;;;;;;;8.88;53.27;100785.50;5039510;28;20529;-76
2022/01/07 11:05:49;;;;;;;2.08;1.23;;;;;;;8.90;53.07;100788.97;5060275;28;20649;-76
2022/01/07 11:08:16;;;;;;;1.80;1.23;;;;;;;8.90;53.38;100793.50;5053235;28;20562;-76
2022/01/07 11:10:44;;;;;;;2.47;1.50;;;;;;;8.90;53.34;100778.13;5060614;28;20052;-76
2022/01/07 11:13:11;;;;;;;2.67;1.17;;;;;;;8.91;53.41;100773.59;5052183;28;20095;-76
2022/01/07 11:15:38;;;;;;;1.98;1.33;;;;;;;8.93;53.12;100780.66;5047255;28;20140;-76
2022/01/07 11:18:05;;;;;;;1.77;1.20;;;;;;;8.94;53.20;100782.41;5047899;28;20049;-76
2022/01/07 11:20:32;;;;;;;2.55;1.30;;;;;;;8.94;53.15;100779.69;5051703;28;20458;-77
2022/01/07 11:22:59;;;;;;;1.60;1.20;;;;;;;8.96;53.16;100769.66;5037886;28;20060;-75
2022/01/07 11:25:32;;;;;;;2.00;1.20;;;;;;;9.01;53.12;100780.19;5041978;28;20124;-75
2022/01/07 11:28:00;;;;;;;2.90;1.30;;;;;;;9.00;53.23;100770.31;5046811;28;20129;-74
2022/01/07 11:30:32;;;;;;;2.20;1.25;;;;;;;9.03;53.39;100768.31;5049805;28;20044;-74
2022/01/07 11:33:00;;;;;;;2.38;1.40;;;;;;;9.04;53.22;100772.75;5048517;28;20079;-75
2022/01/07 11:35:26;;;;;;;2.80;1.38;;;;;;;9.05;53.18;100760.97;5043406;28;20644;-76
2022/01/07 11:37:54;;;;;;;3.10;1.45;;;;;;;9.07;52.93;100769.84;5047190;28;20137;-76
2022/01/07 11:40:33;;;;;;;2.25;1.30;;;;;;;9.10;53.22;100774.19;5053096;28;20049;-76
2022/01/07 11:43:24;;;;;;;1.63;1.23;;;;;;;9.09;53.13;100761.63;5039582;28;20087;-75
2022/01/07 11:45:53;;;;;;;3.10;1.27;;;;;;;9.11;53.20;100749.75;5043689;28;20053;-75